MDT,Max TemperatureF,Mean TemperatureF,Min TemperatureF,Max Dew PointF,MeanDew PointF,Min DewpointF,Max Humidity, Mean Humidity, Min Humidity, Max Sea Level PressureIn, Mean Sea Level PressureIn, Min Sea Level PressureIn, Max VisibilityMiles, Mean VisibilityMiles, Min VisibilityMiles, Max Wind SpeedMPH, Mean Wind SpeedMPH, Max Gust SpeedMPH,PrecipitationIn, CloudCover, Events, WindDirDegrees
2012-9-1,82,69,55,54,48,43,69,48,26,30.02,29.88,29.75,10,10,10,28,10,36,0.02,1,Thunderstorm,184
2012-9-2,81,67,52,44,35,23,64,38,12,30.14,30.01,29.95,10,10,10,32,8,155,0.00,0,,222
2012-9-3,87,69,51,44,32,25,51,31,10,30.05,29.97,29.90,10,10,10,15,7,17,0.00,0,,181
2012-9-4,85,70,54,32,29,26,35,24,12,30.13,29.99,29.91,10,10,10,18,12,22,0.00,0,,227
2012-9-5,88,72,56,41,32,27,39,25,11,30.02,29.92,29.80,10,10,10,17,9,24,0.00,0,,211
2012-9-6,80,70,60,41,34,23,46,32,17,30.10,29.91,29.78,10,10,10,25,11,33,T,1,,223
2012-9-7,83,67,50,46,38,29,59,37,14,30.17,30.10,29.99,10,10,10,14,7,20,0.00,0,,196
2012-9-8,88,67,45,43,31,22,60,35,9,30.18,30.08,29.96,10,10,7,15,7,20,0.00,0,,99
2012-9-9,93,76,58,50,37,26,46,30,13,30.04,29.83,29.68,10,10,8,22,11,30,T,1,,120
2012-9-10,80,69,57,47,31,23,41,27,12,30.05,29.83,29.69,10,10,10,22,13,26,0.00,0,,234
2012-9-11,74,62,49,33,23,10,48,29,9,30.10,29.99,29.87,10,10,10,21,14,26,0.00,0,,228
2012-9-12,74,61,47,32,18,8,45,28,11,30.27,30.17,30.05,10,10,10,21,11,25,0.00,0,,224
2012-9-13,84,63,42,33,24,17,39,25,11,30.36,30.26,30.19,10,10,8,13,8,17,0.00,0,,110
2012-9-14,91,65,39,37,24,11,53,29,5,30.22,30.11,29.99,10,10,9,16,8,20,0.00,0,,105
2012-9-15,85,71,57,40,24,10,37,24,10,30.19,30.00,29.93,10,10,10,16,10,21,0.00,0,,197
2012-9-16,84,69,54,34,30,23,33,24,15,30.12,29.97,29.91,10,9,5,22,12,28,0.00,0,,232
2012-9-17,79,66,52,35,29,21,43,28,12,30.18,30.06,29.99,10,9,6,15,10,20,0.00,0,,222
2012-9-18,83,67,51,34,27,22,38,26,13,30.12,30.05,30.00,10,10,8,17,9,21,0.00,0,,215
2012-9-19,83,71,59,34,24,18,23,18,13,30.16,30.04,30.00,10,9,5,17,11,21,0.00,0,,228
2012-9-20,82,68,53,36,28,23,43,29,15,30.19,30.07,30.02,8,6,4,14,9,15,0.00,2,,217
2012-9-21,86,66,45,39,29,23,49,31,13,30.19,30.07,29.94,7,3,1,14,7,16,0.00,6,,131
2012-9-22,87,67,46,39,32,26,49,32,15,30.10,29.93,29.84,8,6,5,17,7,22,0.00,1,,99
2012-9-23,83,69,54,47,35,26,67,43,18,30.06,29.93,29.84,10,8,3,24,10,30,0.02,4,Rain,196
2012-9-24,72,60,48,48,45,41,83,59,34,30.04,29.97,29.91,10,10,10,13,7,16,0.01,1,,214
2012-9-25,74,65,56,47,44,41,67,50,33,30.05,29.92,29.88,10,10,8,10,8,,T,6,Rain,219
2012-9-26,77,63,49,46,43,40,71,51,31,30.10,29.96,29.92,10,8,5,14,6,16,0.00,0,,145
2012-9-27,82,66,50,43,38,33,63,41,18,30.05,29.98,29.94,10,9,6,16,8,18,0.00,0,,181
2012-9-28,85,66,47,43,36,30,66,40,14,30.04,29.93,29.86,10,10,8,18,6,23,0.00,1,,191
2012-9-29,83,69,55,40,35,33,47,32,17,30.06,30.00,29.92,10,10,10,16,9,20,0.00,0,,214
2012-9-30,82,69,56,40,34,25,40,29,17,30.17,30.10,30.03,10,10,10,20,14,24,0.00,0,,226